sensor_id;sensor_type;location;lat;lon;timestamp;P1;durP1;ratioP1;P2;durP2;ratioP2
59974;SDS011;62136;-35.664;-63.766;2023-02-05T00:01:28;1.50;;;0.77;;
59974;SDS011;62136;-35.664;-63.766;2023-02-05T00:03:55;1.80;;;0.73;;
59974;SDS011;62136;-35.664;-63.766;2023-02-05T00:06:23;1.83;;;0.60;;
59974;SDS011;62136;-35.664;-63.766;2023-02-05T00:08:50;1.00;;;0.90;;
59974;SDS011;62136;-35.664;-63.766;2023-02-05T00:11:17;2.10;;;0.70;;
59974;SDS011;62136;-35.664;-63.766;2023-02-05T00:13:44;1.38;;;0.70;;
59974;SDS011;62136;-35.664;-63.766;2023-02-05T00:18:40;1.02;;;0.70;;
59974;SDS011;62136;-35.664;-63.766;2023-02-05T00:21:08;0.77;;;0.77;;
59974;SDS011;62136;-35.664;-63.766;2023-02-05T00:23:35;1.10;;;0.80;;
59974;SDS011;62136;-35.664;-63.766;2023-02-05T00:26:04;0.80;;;0.80;;
59974;SDS011;62136;-35.664;-63.766;2023-02-05T00:28:32;2.67;;;1.00;;
59974;SDS011;62136;-35.664;-63.766;2023-02-05T00:31:00;1.40;;;0.60;;
59974;SDS011;62136;-35.664;-63.766;2023-02-05T00:33:32;1.67;;;0.80;;
59974;SDS011;62136;-35.664;-63.766;2023-02-05T00:35:59;1.75;;;0.80;;
59974;SDS011;62136;-35.664;-63.766;2023-02-05T00:38:26;1.23;;;0.73;;
59974;SDS011;62136;-35.664;-63.766;2023-02-05T00:40:53;1.25;;;0.73;;
59974;SDS011;62136;-35.664;-63.766;2023-02-05T00:43:20;1.88;;;0.80;;
59974;SDS011;62136;-35.664;-63.766;2023-02-05T00:45:47;3.42;;;0.90;;
59974;SDS011;62136;-35.664;-63.766;2023-02-05T00:48:14;2.58;;;0.80;;
59974;SDS011;62136;-35.664;-63.766;2023-02-05T00:50:41;0.93;;;0.60;;
59974;SDS011;62136;-35.664;-63.766;2023-02-05T00:53:08;2.53;;;1.08;;
59974;SDS011;62136;-35.664;-63.766;2023-02-05T00:55:35;1.38;;;1.17;;
59974;SDS011;62136;-35.664;-63.766;2023-02-05T00:58:02;2.40;;;1.00;;
59974;SDS011;62136;-35.664;-63.766;2023-02-05T01:00:29;3.65;;;1.05;;
59974;SDS011;62136;-35.664;-63.766;2023-02-05T01:02:57;1.65;;;0.80;;
59974;SDS011;62136;-35.664;-63.766;2023-02-05T01:05:25;1.38;;;0.80;;
59974;SDS011;62136;-35.664;-63.766;2023-02-05T01:07:52;3.50;;;0.95;;
59974;SDS011;62136;-35.664;-63.766;2023-02-05T01:10:19;1.50;;;0.77;;
59974;SDS011;62136;-35.664;-63.766;2023-02-05T01:12:47;0.80;;;0.80;;
59974;SDS011;62136;-35.664;-63.766;2023-02-05T01:15:16;2.03;;;0.93;;
59974;SDS011;62136;-35.664;-63.766;2023-02-05T01:17:43;2.85;;;1.05;;
59974;SDS011;62136;-35.664;-63.766;2023-02-05T01:20:11;3.05;;;1.20;;
59974;SDS011;62136;-35.664;-63.766;2023-02-05T01:22:39;2.85;;;1.30;;
59974;SDS011;62136;-35.664;-63.766;2023-02-05T01:25:07;1.38;;;0.95;;
59974;SDS011;62136;-35.664;-63.766;2023-02-05T01:27:35;1.48;;;1.10;;
59974;SDS011;62136;-35.664;-63.766;2023-02-05T01:30:03;2.00;;;1.30;;
59974;SDS011;62136;-35.664;-63.766;2023-02-05T01:32:31;1.15;;;1.05;;
59974;SDS011;62136;-35.664;-63.766;2023-02-05T01:34:58;1.33;;;1.00;;
59974;SDS011;62136;-35.664;-63.766;2023-02-05T01:37:25;2.75;;;1.10;;
59974;SDS011;62136;-35.664;-63.766;2023-02-05T01:39:52;1.83;;;1.15;;
59974;SDS011;62136;-35.664;-63.766;2023-02-05T01:42:29;1.55;;;1.05;;
59974;SDS011;62136;-35.664;-63.766;2023-02-05T01:48:00;4.03;;;1.20;;
59974;SDS011;62136;-35.664;-63.766;2023-02-05T01:50:50;1.92;;;1.25;;
59974;SDS011;62136;-35.664;-63.766;2023-02-05T01:53:28;2.58;;;1.10;;
59974;SDS011;62136;-35.664;-63.766;2023-02-05T01:56:00;2.42;;;1.30;;
59974;SDS011;62136;-35.664;-63.766;2023-02-05T01:58:35;2.55;;;1.20;;
59974;SDS011;62136;-35.664;-63.766;2023-02-05T02:01:08;4.43;;;1.40;;
59974;SDS011;62136;-35.664;-63.766;2023-02-05T02:03:35;3.28;;;1.33;;
59974;SDS011;62136;-35.664;-63.766;2023-02-05T02:06:03;2.33;;;1.23;;
59974;SDS011;62136;-35.664;-63.766;2023-02-05T02:08:31;3.13;;;1.20;;
59974;SDS011;62136;-35.664;-63.766;2023-02-05T02:10:58;1.95;;;1.58;;
59974;SDS011;62136;-35.664;-63.766;2023-02-05T02:13:27;2.70;;;1.42;;
59974;SDS011;62136;-35.664;-63.766;2023-02-05T02:15:56;2.47;;;1.42;;
59974;SDS011;62136;-35.664;-63.766;2023-02-05T02:18:23;4.05;;;1.25;;
59974;SDS011;62136;-35.664;-63.766;2023-02-05T02:21:14;1.98;;;1.25;;
59974;SDS011;62136;-35.664;-63.766;2023-02-05T02:29:57;2.33;;;1.33;;
59974;SDS011;62136;-35.664;-63.766;2023-02-05T02:32:45;2.25;;;1.42;;
59974;SDS011;62136;-35.664;-63.766;2023-02-05T02:38:15;1.65;;;1.23;;
59974;SDS011;62136;-35.664;-63.766;2023-02-05T02:40:54;2.38;;;1.27;;
59974;SDS011;62136;-35.664;-63.766;2023-02-05T02:46:21;2.75;;;1.30;;
59974;SDS011;62136;-35.664;-63.766;2023-02-05T02:49:04;1.80;;;1.30;;
59974;SDS011;62136;-35.664;-63.766;2023-02-05T02:51:33;3.65;;;1.48;;
59974;SDS011;62136;-35.664;-63.766;2023-02-05T02:54:05;2.60;;;1.77;;
59974;SDS011;62136;-35.664;-63.766;2023-02-05T02:56:36;3.25;;;1.65;;
59974;SDS011;62136;-35.664;-63.766;2023-02-05T02:59:06;3.47;;;1.40;;
59974;SDS011;62136;-35.664;-63.766;2023-02-05T03:01:37;2.33;;;1.40;;
59974;SDS011;62136;-35.664;-63.766;2023-02-05T03:04:07;1.95;;;1.40;;
59974;SDS011;62136;-35.664;-63.766;2023-02-05T03:06:47;2.45;;;1.60;;
59974;SDS011;62136;-35.664;-63.766;2023-02-05T03:09:20;2.17;;;1.55;;
59974;SDS011;62136;-35.664;-63.766;2023-02-05T03:12:11;1.63;;;1.48;;
59974;SDS011;62136;-35.664;-63.766;2023-02-05T03:14:39;2.03;;;1.50;;
59974;SDS011;62136;-35.664;-63.766;2023-02-05T03:17:06;2.60;;;1.58;;
59974;SDS011;62136;-35.664;-63.766;2023-02-05T03:19:33;3.17;;;1.50;;
59974;SDS011;62136;-35.664;-63.766;2023-02-05T03:22:01;3.33;;;1.35;;
59974;SDS011;62136;-35.664;-63.766;2023-02-05T03:24:29;3.17;;;1.42;;
59974;SDS011;62136;-35.664;-63.766;2023-02-05T03:26:57;3.60;;;1.70;;
59974;SDS011;62136;-35.664;-63.766;2023-02-05T03:29:29;2.10;;;1.40;;
59974;SDS011;62136;-35.664;-63.766;2023-02-05T03:40:17;2.15;;;1.42;;
59974;SDS011;62136;-35.664;-63.766;2023-02-05T03:56:35;2.67;;;1.40;;
59974;SDS011;62136;-35.664;-63.766;2023-02-05T03:59:17;2.50;;;1.27;;
59974;SDS011;62136;-35.664;-63.766;2023-02-05T04:01:45;1.70;;;1.33;;
59974;SDS011;62136;-35.664;-63.766;2023-02-05T04:04:12;1.95;;;1.40;;
59974;SDS011;62136;-35.664;-63.766;2023-02-05T04:06:40;2.00;;;1.48;;
59974;SDS011;62136;-35.664;-63.766;2023-02-05T04:09:08;2.22;;;1.40;;
59974;SDS011;62136;-35.664;-63.766;2023-02-05T04:11:36;3.35;;;1.77;;
59974;SDS011;62136;-35.664;-63.766;2023-02-05T04:14:03;2.10;;;1.33;;
59974;SDS011;62136;-35.664;-63.766;2023-02-05T04:16:30;2.58;;;1.50;;
59974;SDS011;62136;-35.664;-63.766;2023-02-05T04:18:57;2.25;;;1.40;;
59974;SDS011;62136;-35.664;-63.766;2023-02-05T04:21:24;2.20;;;1.20;;
59974;SDS011;62136;-35.664;-63.766;2023-02-05T04:23:52;3.38;;;1.20;;
59974;SDS011;62136;-35.664;-63.766;2023-02-05T04:26:19;1.85;;;1.70;;
59974;SDS011;62136;-35.664;-63.766;2023-02-05T04:28:46;2.45;;;1.48;;
59974;SDS011;62136;-35.664;-63.766;2023-02-05T04:31:13;1.60;;;1.30;;
59974;SDS011;62136;-35.664;-63.766;2023-02-05T04:33:40;2.58;;;1.63;;
59974;SDS011;62136;-35.664;-63.766;2023-02-05T04:36:07;2.35;;;1.65;;
59974;SDS011;62136;-35.664;-63.766;2023-02-05T04:38:35;1.48;;;1.35;;
59974;SDS011;62136;-35.664;-63.766;2023-02-05T04:41:04;1.52;;;1.30;;
59974;SDS011;62136;-35.664;-63.766;2023-02-05T04:43:32;2.63;;;1.35;;
59974;SDS011;62136;-35.664;-63.766;2023-02-05T04:46:06;2.85;;;1.30;;
59974;SDS011;62136;-35.664;-63.766;2023-02-05T04:48:34;1.63;;;1.52;;
59974;SDS011;62136;-35.664;-63.766;2023-02-05T04:51:12;1.20;;;1.10;;
59974;SDS011;62136;-35.664;-63.766;2023-02-05T04:53:39;1.52;;;1.27;;
59974;SDS011;62136;-35.664;-63.766;2023-02-05T04:56:07;2.10;;;1.45;;
59974;SDS011;62136;-35.664;-63.766;2023-02-05T04:58:39;2.45;;;1.50;;
59974;SDS011;62136;-35.664;-63.766;2023-02-05T05:01:10;2.78;;;1.23;;
59974;SDS011;62136;-35.664;-63.766;2023-02-05T05:03:41;2.92;;;1.35;;
59974;SDS011;62136;-35.664;-63.766;2023-02-05T05:06:09;1.33;;;1.20;;
59974;SDS011;62136;-35.664;-63.766;2023-02-05T05:08:39;1.95;;;1.25;;
59974;SDS011;62136;-35.664;-63.766;2023-02-05T05:11:08;1.30;;;1.20;;
59974;SDS011;62136;-35.664;-63.766;2023-02-05T05:13:36;1.25;;;1.10;;
59974;SDS011;62136;-35.664;-63.766;2023-02-05T05:16:04;2.88;;;1.35;;
59974;SDS011;62136;-35.664;-63.766;2023-02-05T05:18:33;1.48;;;1.30;;
59974;SDS011;62136;-35.664;-63.766;2023-02-05T05:21:00;4.00;;;1.63;;
59974;SDS011;62136;-35.664;-63.766;2023-02-05T05:23:28;1.58;;;1.40;;
59974;SDS011;62136;-35.664;-63.766;2023-02-05T05:26:01;2.10;;;1.30;;
59974;SDS011;62136;-35.664;-63.766;2023-02-05T05:28:33;1.70;;;1.60;;
59974;SDS011;62136;-35.664;-63.766;2023-02-05T05:31:12;1.88;;;1.23;;
59974;SDS011;62136;-35.664;-63.766;2023-02-05T05:33:43;2.60;;;1.40;;
59974;SDS011;62136;-35.664;-63.766;2023-02-05T05:36:11;1.40;;;1.30;;
59974;SDS011;62136;-35.664;-63.766;2023-02-05T05:38:38;1.48;;;1.38;;
59974;SDS011;62136;-35.664;-63.766;2023-02-05T05:41:05;2.17;;;1.40;;
59974;SDS011;62136;-35.664;-63.766;2023-02-05T05:43:52;1.20;;;1.00;;
59974;SDS011;62136;-35.664;-63.766;2023-02-05T05:46:20;1.20;;;1.10;;
59974;SDS011;62136;-35.664;-63.766;2023-02-05T05:48:51;2.20;;;1.20;;
59974;SDS011;62136;-35.664;-63.766;2023-02-05T05:51:20;1.52;;;1.30;;
59974;SDS011;62136;-35.664;-63.766;2023-02-05T05:53:49;1.58;;;1.48;;
59974;SDS011;62136;-35.664;-63.766;2023-02-05T05:56:16;1.60;;;1.38;;
59974;SDS011;62136;-35.664;-63.766;2023-02-05T05:58:43;3.10;;;1.63;;
59974;SDS011;62136;-35.664;-63.766;2023-02-05T06:01:11;2.38;;;1.35;;
59974;SDS011;62136;-35.664;-63.766;2023-02-05T06:03:43;1.65;;;1.40;;
59974;SDS011;62136;-35.664;-63.766;2023-02-05T06:06:10;1.77;;;1.17;;
59974;SDS011;62136;-35.664;-63.766;2023-02-05T06:08:38;1.63;;;1.20;;
59974;SDS011;62136;-35.664;-63.766;2023-02-05T06:11:05;1.95;;;1.40;;
59974;SDS011;62136;-35.664;-63.766;2023-02-05T06:13:32;1.30;;;1.15;;
59974;SDS011;62136;-35.664;-63.766;2023-02-05T06:15:59;1.65;;;1.05;;
59974;SDS011;62136;-35.664;-63.766;2023-02-05T06:18:26;3.63;;;1.40;;
59974;SDS011;62136;-35.664;-63.766;2023-02-05T06:20:54;2.55;;;1.40;;
59974;SDS011;62136;-35.664;-63.766;2023-02-05T06:23:21;2.03;;;1.27;;
59974;SDS011;62136;-35.664;-63.766;2023-02-05T06:25:48;3.20;;;1.50;;
59974;SDS011;62136;-35.664;-63.766;2023-02-05T06:28:15;1.60;;;1.42;;
59974;SDS011;62136;-35.664;-63.766;2023-02-05T06:30:42;2.33;;;1.38;;
59974;SDS011;62136;-35.664;-63.766;2023-02-05T06:33:12;1.35;;;1.10;;
59974;SDS011;62136;-35.664;-63.766;2023-02-05T06:35:39;3.80;;;1.00;;
59974;SDS011;62136;-35.664;-63.766;2023-02-05T06:38:07;1.88;;;1.17;;
59974;SDS011;62136;-35.664;-63.766;2023-02-05T06:40:34;2.08;;;1.10;;
59974;SDS011;62136;-35.664;-63.766;2023-02-05T06:43:01;1.88;;;1.23;;
59974;SDS011;62136;-35.664;-63.766;2023-02-05T06:45:28;2.47;;;1.25;;
59974;SDS011;62136;-35.664;-63.766;2023-02-05T06:47:55;1.45;;;1.20;;
59974;SDS011;62136;-35.664;-63.766;2023-02-05T06:50:23;1.83;;;1.20;;
59974;SDS011;62136;-35.664;-63.766;2023-02-05T06:52:50;1.83;;;1.13;;
59974;SDS011;62136;-35.664;-63.766;2023-02-05T06:55:18;1.40;;;1.20;;
59974;SDS011;62136;-35.664;-63.766;2023-02-05T06:57:45;2.08;;;1.20;;
59974;SDS011;62136;-35.664;-63.766;2023-02-05T07:00:12;1.48;;;1.10;;
59974;SDS011;62136;-35.664;-63.766;2023-02-05T07:02:40;1.58;;;0.95;;
59974;SDS011;62136;-35.664;-63.766;2023-02-05T07:05:08;1.20;;;0.95;;
59974;SDS011;62136;-35.664;-63.766;2023-02-05T07:07:35;2.03;;;1.15;;
59974;SDS011;62136;-35.664;-63.766;2023-02-05T07:10:02;2.13;;;1.00;;
59974;SDS011;62136;-35.664;-63.766;2023-02-05T07:12:29;2.75;;;1.10;;
59974;SDS011;62136;-35.664;-63.766;2023-02-05T07:14:57;1.52;;;1.00;;
59974;SDS011;62136;-35.664;-63.766;2023-02-05T07:17:24;1.40;;;1.30;;
59974;SDS011;62136;-35.664;-63.766;2023-02-05T07:19:51;3.38;;;1.20;;
59974;SDS011;62136;-35.664;-63.766;2023-02-05T07:22:18;3.17;;;1.27;;
59974;SDS011;62136;-35.664;-63.766;2023-02-05T07:24:45;2.78;;;1.20;;
59974;SDS011;62136;-35.664;-63.766;2023-02-05T07:27:12;2.17;;;1.05;;
59974;SDS011;62136;-35.664;-63.766;2023-02-05T07:29:39;0.90;;;0.90;;
59974;SDS011;62136;-35.664;-63.766;2023-02-05T07:32:06;1.98;;;1.17;;
59974;SDS011;62136;-35.664;-63.766;2023-02-05T07:34:33;1.88;;;1.17;;
59974;SDS011;62136;-35.664;-63.766;2023-02-05T07:37:03;1.15;;;1.00;;
59974;SDS011;62136;-35.664;-63.766;2023-02-05T07:39:33;1.48;;;1.20;;
59974;SDS011;62136;-35.664;-63.766;2023-02-05T07:42:00;1.23;;;1.00;;
59974;SDS011;62136;-35.664;-63.766;2023-02-05T07:44:29;2.05;;;1.13;;
59974;SDS011;62136;-35.664;-63.766;2023-02-05T07:46:56;2.25;;;1.00;;
59974;SDS011;62136;-35.664;-63.766;2023-02-05T07:49:24;2.35;;;1.38;;
59974;SDS011;62136;-35.664;-63.766;2023-02-05T07:51:51;1.10;;;1.00;;
59974;SDS011;62136;-35.664;-63.766;2023-02-05T07:54:18;1.42;;;1.00;;
59974;SDS011;62136;-35.664;-63.766;2023-02-05T07:56:45;0.90;;;0.90;;
59974;SDS011;62136;-35.664;-63.766;2023-02-05T07:59:15;1.17;;;1.10;;
59974;SDS011;62136;-35.664;-63.766;2023-02-05T08:01:42;1.38;;;0.90;;
59974;SDS011;62136;-35.664;-63.766;2023-02-05T08:04:15;1.17;;;1.08;;
59974;SDS011;62136;-35.664;-63.766;2023-02-05T08:06:45;2.67;;;1.00;;
59974;SDS011;62136;-35.664;-63.766;2023-02-05T08:09:12;1.83;;;0.90;;
59974;SDS011;62136;-35.664;-63.766;2023-02-05T08:11:41;2.28;;;0.90;;
59974;SDS011;62136;-35.664;-63.766;2023-02-05T08:14:08;1.27;;;1.05;;
59974;SDS011;62136;-35.664;-63.766;2023-02-05T08:16:35;1.95;;;0.90;;
59974;SDS011;62136;-35.664;-63.766;2023-02-05T08:19:04;1.25;;;0.80;;
59974;SDS011;62136;-35.664;-63.766;2023-02-05T08:21:32;1.63;;;0.95;;
59974;SDS011;62136;-35.664;-63.766;2023-02-05T08:23:59;0.88;;;0.88;;
59974;SDS011;62136;-35.664;-63.766;2023-02-05T08:26:27;1.60;;;1.05;;
59974;SDS011;62136;-35.664;-63.766;2023-02-05T08:28:56;1.55;;;1.10;;
59974;SDS011;62136;-35.664;-63.766;2023-02-05T08:31:24;1.20;;;1.08;;
59974;SDS011;62136;-35.664;-63.766;2023-02-05T08:33:51;1.05;;;0.95;;
59974;SDS011;62136;-35.664;-63.766;2023-02-05T08:36:22;1.02;;;0.93;;
59974;SDS011;62136;-35.664;-63.766;2023-02-05T08:38:49;1.20;;;0.98;;
59974;SDS011;62136;-35.664;-63.766;2023-02-05T08:41:16;2.00;;;1.08;;
59974;SDS011;62136;-35.664;-63.766;2023-02-05T08:43:44;1.38;;;1.08;;
59974;SDS011;62136;-35.664;-63.766;2023-02-05T08:46:15;1.10;;;0.90;;
59974;SDS011;62136;-35.664;-63.766;2023-02-05T08:48:44;1.10;;;0.80;;
59974;SDS011;62136;-35.664;-63.766;2023-02-05T08:51:12;1.00;;;0.90;;
59974;SDS011;62136;-35.664;-63.766;2023-02-05T08:53:39;1.30;;;1.00;;
59974;SDS011;62136;-35.664;-63.766;2023-02-05T08:56:07;1.10;;;1.00;;
59974;SDS011;62136;-35.664;-63.766;2023-02-05T08:58:35;1.35;;;0.82;;
59974;SDS011;62136;-35.664;-63.766;2023-02-05T09:01:04;1.60;;;1.08;;
59974;SDS011;62136;-35.664;-63.766;2023-02-05T09:03:34;0.90;;;0.90;;
59974;SDS011;62136;-35.664;-63.766;2023-02-05T09:06:03;1.52;;;0.80;;
59974;SDS011;62136;-35.664;-63.766;2023-02-05T09:08:31;1.40;;;0.90;;
59974;SDS011;62136;-35.664;-63.766;2023-02-05T09:10:59;1.40;;;1.13;;
59974;SDS011;62136;-35.664;-63.766;2023-02-05T09:13:26;2.65;;;1.10;;
59974;SDS011;62136;-35.664;-63.766;2023-02-05T09:15:53;0.90;;;0.70;;
59974;SDS011;62136;-35.664;-63.766;2023-02-05T09:18:20;1.10;;;1.00;;
59974;SDS011;62136;-35.664;-63.766;2023-02-05T09:20:48;1.02;;;0.88;;
59974;SDS011;62136;-35.664;-63.766;2023-02-05T09:23:17;1.73;;;0.90;;
59974;SDS011;62136;-35.664;-63.766;2023-02-05T09:25:44;0.88;;;0.82;;
59974;SDS011;62136;-35.664;-63.766;2023-02-05T09:28:12;1.20;;;1.10;;
59974;SDS011;62136;-35.664;-63.766;2023-02-05T09:30:41;0.80;;;0.80;;
59974;SDS011;62136;-35.664;-63.766;2023-02-05T09:33:10;1.05;;;0.77;;
59974;SDS011;62136;-35.664;-63.766;2023-02-05T09:35:38;1.60;;;0.90;;
59974;SDS011;62136;-35.664;-63.766;2023-02-05T09:38:05;2.33;;;1.10;;
59974;SDS011;62136;-35.664;-63.766;2023-02-05T09:43:30;0.95;;;0.90;;
59974;SDS011;62136;-35.664;-63.766;2023-02-05T09:49:06;1.50;;;1.00;;
59974;SDS011;62136;-35.664;-63.766;2023-02-05T09:51:44;1.77;;;0.90;;
59974;SDS011;62136;-35.664;-63.766;2023-02-05T09:56:43;1.08;;;0.80;;
59974;SDS011;62136;-35.664;-63.766;2023-02-05T09:59:15;1.05;;;0.80;;
59974;SDS011;62136;-35.664;-63.766;2023-02-05T10:01:51;1.53;;;1.20;;
59974;SDS011;62136;-35.664;-63.766;2023-02-05T10:04:23;0.75;;;0.75;;
59974;SDS011;62136;-35.664;-63.766;2023-02-05T10:20:49;0.90;;;0.90;;
59974;SDS011;62136;-35.664;-63.766;2023-02-05T10:27:06;1.77;;;0.85;;
59974;SDS011;62136;-35.664;-63.766;2023-02-05T10:29:37;0.95;;;0.85;;
59974;SDS011;62136;-35.664;-63.766;2023-02-05T10:32:13;0.85;;;0.85;;
59974;SDS011;62136;-35.664;-63.766;2023-02-05T10:34:57;0.95;;;0.95;;
59974;SDS011;62136;-35.664;-63.766;2023-02-05T10:38:08;2.72;;;1.27;;
59974;SDS011;62136;-35.664;-63.766;2023-02-05T10:40:21;0.80;;;0.80;;
59974;SDS011;62136;-35.664;-63.766;2023-02-05T10:42:56;0.98;;;0.98;;
59974;SDS011;62136;-35.664;-63.766;2023-02-05T10:45:39;0.98;;;0.70;;
59974;SDS011;62136;-35.664;-63.766;2023-02-05T10:51:44;0.93;;;0.70;;
59974;SDS011;62136;-35.664;-63.766;2023-02-05T10:54:14;0.75;;;0.70;;
59974;SDS011;62136;-35.664;-63.766;2023-02-05T10:56:44;0.90;;;0.80;;
59974;SDS011;62136;-35.664;-63.766;2023-02-05T10:59:21;0.77;;;0.70;;
59974;SDS011;62136;-35.664;-63.766;2023-02-05T11:01:55;0.90;;;0.90;;
59974;SDS011;62136;-35.664;-63.766;2023-02-05T11:07:32;0.70;;;0.70;;
59974;SDS011;62136;-35.664;-63.766;2023-02-05T11:10:16;1.00;;;0.90;;
59974;SDS011;62136;-35.664;-63.766;2023-02-05T11:12:45;1.40;;;0.80;;
59974;SDS011;62136;-35.664;-63.766;2023-02-05T11:15:24;0.88;;;0.88;;
59974;SDS011;62136;-35.664;-63.766;2023-02-05T11:23:06;0.85;;;0.82;;
59974;SDS011;62136;-35.664;-63.766;2023-02-05T11:28:29;0.93;;;0.70;;
59974;SDS011;62136;-35.664;-63.766;2023-02-05T11:31:10;0.70;;;0.70;;
59974;SDS011;62136;-35.664;-63.766;2023-02-05T11:33:44;1.08;;;0.70;;
59974;SDS011;62136;-35.664;-63.766;2023-02-05T11:36:18;0.82;;;0.70;;
59974;SDS011;62136;-35.664;-63.766;2023-02-05T11:38:54;0.80;;;0.80;;
59974;SDS011;62136;-35.664;-63.766;2023-02-05T11:43:59;1.05;;;0.80;;
59974;SDS011;62136;-35.664;-63.766;2023-02-05T11:46:28;1.48;;;0.90;;
59974;SDS011;62136;-35.664;-63.766;2023-02-05T11:59:34;1.70;;;0.80;;
59974;SDS011;62136;-35.664;-63.766;2023-02-05T12:07:45;0.88;;;0.80;;
59974;SDS011;62136;-35.664;-63.766;2023-02-05T12:10:18;1.17;;;0.93;;
59974;SDS011;62136;-35.664;-63.766;2023-02-05T12:16:15;1.77;;;0.80;;
59974;SDS011;62136;-35.664;-63.766;2023-02-05T12:21:43;0.60;;;0.60;;
59974;SDS011;62136;-35.664;-63.766;2023-02-05T12:24:38;1.13;;;1.02;;
59974;SDS011;62136;-35.664;-63.766;2023-02-05T12:30:03;0.70;;;0.70;;
59974;SDS011;62136;-35.664;-63.766;2023-02-05T12:41:00;0.98;;;0.70;;
59974;SDS011;62136;-35.664;-63.766;2023-02-05T12:44:10;1.20;;;0.70;;
59974;SDS011;62136;-35.664;-63.766;2023-02-05T12:47:03;1.55;;;0.90;;
59974;SDS011;62136;-35.664;-63.766;2023-02-05T12:58:26;1.40;;;0.70;;
59974;SDS011;62136;-35.664;-63.766;2023-02-05T13:01:16;0.85;;;0.80;;
59974;SDS011;62136;-35.664;-63.766;2023-02-05T13:03:48;0.60;;;0.60;;
59974;SDS011;62136;-35.664;-63.766;2023-02-05T13:09:06;0.73;;;0.70;;
59974;SDS011;62136;-35.664;-63.766;2023-02-05T13:12:02;1.17;;;0.80;;
59974;SDS011;62136;-35.664;-63.766;2023-02-05T13:14:35;0.50;;;0.50;;
59974;SDS011;62136;-35.664;-63.766;2023-02-05T13:17:11;0.77;;;0.77;;
59974;SDS011;62136;-35.664;-63.766;2023-02-05T13:20:06;1.23;;;0.60;;
59974;SDS011;62136;-35.664;-63.766;2023-02-05T13:23:25;1.33;;;0.88;;
59974;SDS011;62136;-35.664;-63.766;2023-02-05T13:26:12;1.10;;;0.70;;
59974;SDS011;62136;-35.664;-63.766;2023-02-05T13:29:02;1.35;;;0.65;;
59974;SDS011;62136;-35.664;-63.766;2023-02-05T13:31:36;2.22;;;0.90;;
59974;SDS011;62136;-35.664;-63.766;2023-02-05T13:34:15;1.52;;;0.90;;
59974;SDS011;62136;-35.664;-63.766;2023-02-05T13:51:20;1.25;;;0.70;;
59974;SDS011;62136;-35.664;-63.766;2023-02-05T13:54:27;1.13;;;0.70;;
59974;SDS011;62136;-35.664;-63.766;2023-02-05T14:00:10;0.88;;;0.63;;
59974;SDS011;62136;-35.664;-63.766;2023-02-05T14:02:40;2.35;;;1.00;;
59974;SDS011;62136;-35.664;-63.766;2023-02-05T14:07:47;0.90;;;0.65;;
59974;SDS011;62136;-35.664;-63.766;2023-02-05T14:15:55;1.50;;;0.80;;
59974;SDS011;62136;-35.664;-63.766;2023-02-05T14:24:00;1.13;;;0.82;;
59974;SDS011;62136;-35.664;-63.766;2023-02-05T14:26:49;1.77;;;0.85;;
59974;SDS011;62136;-35.664;-63.766;2023-02-05T14:32:10;1.35;;;0.75;;
59974;SDS011;62136;-35.664;-63.766;2023-02-05T14:37:10;1.10;;;0.80;;
59974;SDS011;62136;-35.664;-63.766;2023-02-05T14:39:50;0.90;;;0.70;;
59974;SDS011;62136;-35.664;-63.766;2023-02-05T14:42:20;1.10;;;1.00;;
59974;SDS011;62136;-35.664;-63.766;2023-02-05T14:44:54;1.05;;;0.80;;
59974;SDS011;62136;-35.664;-63.766;2023-02-05T14:47:26;1.30;;;0.90;;
59974;SDS011;62136;-35.664;-63.766;2023-02-05T14:49:59;1.58;;;0.82;;
59974;SDS011;62136;-35.664;-63.766;2023-02-05T14:52:35;2.03;;;1.00;;
59974;SDS011;62136;-35.664;-63.766;2023-02-05T14:57:48;1.52;;;1.00;;
59974;SDS011;62136;-35.664;-63.766;2023-02-05T15:00:33;1.00;;;0.90;;
59974;SDS011;62136;-35.664;-63.766;2023-02-05T15:08:16;2.35;;;1.15;;
59974;SDS011;62136;-35.664;-63.766;2023-02-05T15:13:24;1.55;;;1.45;;
59974;SDS011;62136;-35.664;-63.766;2023-02-05T15:24:30;2.53;;;2.33;;
59974;SDS011;62136;-35.664;-63.766;2023-02-05T15:26:44;3.92;;;2.15;;
59974;SDS011;62136;-35.664;-63.766;2023-02-05T15:36:53;3.17;;;2.97;;
59974;SDS011;62136;-35.664;-63.766;2023-02-05T15:39:33;4.78;;;4.22;;
59974;SDS011;62136;-35.664;-63.766;2023-02-05T15:42:19;4.68;;;4.38;;
59974;SDS011;62136;-35.664;-63.766;2023-02-05T15:48:01;4.00;;;3.58;;
59974;SDS011;62136;-35.664;-63.766;2023-02-05T15:50:28;3.45;;;3.15;;
59974;SDS011;62136;-35.664;-63.766;2023-02-05T15:52:57;4.90;;;4.50;;
59974;SDS011;62136;-35.664;-63.766;2023-02-05T15:55:25;5.63;;;5.13;;
59974;SDS011;62136;-35.664;-63.766;2023-02-05T15:57:58;4.90;;;4.50;;
59974;SDS011;62136;-35.664;-63.766;2023-02-05T16:00:31;6.68;;;6.05;;
59974;SDS011;62136;-35.664;-63.766;2023-02-05T16:03:00;4.50;;;4.20;;
59974;SDS011;62136;-35.664;-63.766;2023-02-05T16:05:29;4.43;;;4.03;;
59974;SDS011;62136;-35.664;-63.766;2023-02-05T16:07:57;5.10;;;4.70;;
59974;SDS011;62136;-35.664;-63.766;2023-02-05T16:10:27;5.60;;;5.10;;
59974;SDS011;62136;-35.664;-63.766;2023-02-05T16:15:30;6.10;;;5.70;;
59974;SDS011;62136;-35.664;-63.766;2023-02-05T16:17:59;5.50;;;4.72;;
59974;SDS011;62136;-35.664;-63.766;2023-02-05T16:20:31;5.72;;;5.07;;
59974;SDS011;62136;-35.664;-63.766;2023-02-05T16:23:11;6.63;;;6.05;;
59974;SDS011;62136;-35.664;-63.766;2023-02-05T16:25:50;5.72;;;5.07;;
59974;SDS011;62136;-35.664;-63.766;2023-02-05T16:28:23;7.63;;;6.93;;
59974;SDS011;62136;-35.664;-63.766;2023-02-05T16:30:54;8.27;;;7.47;;
59974;SDS011;62136;-35.664;-63.766;2023-02-05T16:33:31;9.38;;;8.45;;
59974;SDS011;62136;-35.664;-63.766;2023-02-05T16:36:06;7.45;;;6.72;;
59974;SDS011;62136;-35.664;-63.766;2023-02-05T16:38:40;7.90;;;7.20;;
59974;SDS011;62136;-35.664;-63.766;2023-02-05T16:41:18;9.07;;;8.18;;
59974;SDS011;62136;-35.664;-63.766;2023-02-05T16:43:48;9.43;;;8.55;;
59974;SDS011;62136;-35.664;-63.766;2023-02-05T16:46:19;11.27;;;9.98;;
59974;SDS011;62136;-35.664;-63.766;2023-02-05T16:48:49;9.35;;;8.40;;
59974;SDS011;62136;-35.664;-63.766;2023-02-05T16:53:52;8.63;;;7.85;;
59974;SDS011;62136;-35.664;-63.766;2023-02-05T16:56:20;8.82;;;7.95;;
59974;SDS011;62136;-35.664;-63.766;2023-02-05T16:58:59;8.60;;;7.75;;
59974;SDS011;62136;-35.664;-63.766;2023-02-05T17:01:31;12.25;;;10.95;;
59974;SDS011;62136;-35.664;-63.766;2023-02-05T17:04:02;10.68;;;9.68;;
59974;SDS011;62136;-35.664;-63.766;2023-02-05T17:06:33;9.30;;;8.40;;
59974;SDS011;62136;-35.664;-63.766;2023-02-05T17:09:02;10.15;;;8.63;;
59974;SDS011;62136;-35.664;-63.766;2023-02-05T17:11:35;9.90;;;8.90;;
59974;SDS011;62136;-35.664;-63.766;2023-02-05T17:16:58;8.25;;;7.30;;
59974;SDS011;62136;-35.664;-63.766;2023-02-05T17:19:40;8.65;;;7.85;;
59974;SDS011;62136;-35.664;-63.766;2023-02-05T17:24:41;9.00;;;8.10;;
59974;SDS011;62136;-35.664;-63.766;2023-02-05T17:27:18;9.10;;;7.50;;
59974;SDS011;62136;-35.664;-63.766;2023-02-05T17:29:49;9.00;;;7.55;;
59974;SDS011;62136;-35.664;-63.766;2023-02-05T17:32:17;8.45;;;7.65;;
59974;SDS011;62136;-35.664;-63.766;2023-02-05T17:34:45;8.18;;;7.30;;
59974;SDS011;62136;-35.664;-63.766;2023-02-05T17:37:13;9.18;;;7.90;;
59974;SDS011;62136;-35.664;-63.766;2023-02-05T17:39:40;8.15;;;7.35;;
59974;SDS011;62136;-35.664;-63.766;2023-02-05T17:42:20;8.48;;;7.57;;
59974;SDS011;62136;-35.664;-63.766;2023-02-05T17:44:49;7.40;;;6.60;;
59974;SDS011;62136;-35.664;-63.766;2023-02-05T17:47:18;7.55;;;6.75;;
59974;SDS011;62136;-35.664;-63.766;2023-02-05T17:49:45;7.00;;;6.30;;
59974;SDS011;62136;-35.664;-63.766;2023-02-05T17:52:12;7.85;;;7.05;;
59974;SDS011;62136;-35.664;-63.766;2023-02-05T17:54:42;6.97;;;6.38;;
59974;SDS011;62136;-35.664;-63.766;2023-02-05T17:57:19;8.27;;;7.30;;